Weather at Venice Marco Polo Airport

Public forecast

Using degrees Celsius for public forecast. Weather courtesy of forecast.io.

Current aviation weather report (METAR) for Venice Marco Polo Airport

Retrieved 2021/07/27 07:50 UTC (13 minutes ago):

LIPZ 270750Z 02006KT 9999 SCT070 22/20 Q1016 NOSIG

Aviation forecast (TAF) for Venice Marco Polo Airport

Retrieved 2021/07/27 06:00 UTC (2 hours ago):

TAF LIPZ 270500Z 2706/2812 03005KT 9999 FEW030 SCT060 TEMPO 2706/2711 TSRA BECMG 2709/2711 12012KT BECMG 2714/2717 03008KT TEMPO 2715/2718 4000 TSRA BECMG 2809/2811 18010KT